createdAt,value
2023-04-16T00:00:00.689Z,1.83
2023-04-16T00:03:06.096Z,2.00
2023-04-16T00:06:12.197Z,2.30
2023-04-16T00:09:15.738Z,1.50
2023-04-16T00:12:19.316Z,2.17
2023-04-16T00:15:22.968Z,2.67
2023-04-16T00:18:27.853Z,1.90
2023-04-16T00:21:31.504Z,2.20
2023-04-16T00:24:35.055Z,2.20
2023-04-16T00:27:38.518Z,2.40
2023-04-16T00:30:42.105Z,2.40
2023-04-16T00:33:47.107Z,1.80
2023-04-16T00:36:50.604Z,1.83
2023-04-16T00:39:54.061Z,1.80
2023-04-16T00:42:57.551Z,2.90
2023-04-16T00:46:01.287Z,3.63
2023-04-16T00:49:06.439Z,7.80
2023-04-16T00:52:10.296Z,17.73
2023-04-16T00:55:13.859Z,7.83
2023-04-16T00:58:17.904Z,6.97
2023-04-16T01:01:21.550Z,3.40
2023-04-16T01:04:26.820Z,2.40
2023-04-16T01:07:30.859Z,1.87
2023-04-16T01:10:34.350Z,1.73
2023-04-16T01:13:39.936Z,2.30
2023-04-16T01:16:43.578Z,1.80
2023-04-16T01:19:49.097Z,2.10
2023-04-16T01:22:54.077Z,1.70
2023-04-16T01:25:57.600Z,1.73
2023-04-16T01:29:01.550Z,2.47
2023-04-16T01:32:05.100Z,2.83
2023-04-16T01:35:10.977Z,2.60
2023-04-16T01:38:16.688Z,2.90
2023-04-16T01:41:20.591Z,2.20
2023-04-16T01:44:24.244Z,2.10
2023-04-16T01:47:27.962Z,2.27
2023-04-16T01:50:32.418Z,2.23
2023-04-16T01:53:37.578Z,2.50
2023-04-16T01:56:41.196Z,2.20
2023-04-16T01:59:45.216Z,2.30
2023-04-16T02:02:49.599Z,2.40
2023-04-16T02:06:02.606Z,2.50
2023-04-16T02:09:07.706Z,2.80
2023-04-16T02:12:13.560Z,2.40
2023-04-16T02:15:17.766Z,2.10
2023-04-16T02:18:22.298Z,2.40
2023-04-16T02:21:26.217Z,2.53
2023-04-16T02:24:31.459Z,2.23
2023-04-16T02:27:36.926Z,2.20
2023-04-16T02:30:55.593Z,2.40
2023-04-16T02:33:59.449Z,2.03
2023-04-16T02:37:02.873Z,2.43
2023-04-16T02:40:09.373Z,2.30
2023-04-16T02:43:12.845Z,2.80
2023-04-16T02:46:16.503Z,2.43
2023-04-16T02:49:20.093Z,2.50
2023-04-16T02:52:25.032Z,2.57
2023-04-16T02:55:30.009Z,3.47
2023-04-16T02:58:33.754Z,2.93
2023-04-16T03:01:37.409Z,2.60
2023-04-16T03:04:41.182Z,2.67
2023-04-16T03:07:44.771Z,2.60
2023-04-16T03:10:49.726Z,3.13
2023-04-16T03:13:54.020Z,2.60
2023-04-16T03:16:57.567Z,2.70
2023-04-16T03:20:01.228Z,2.30
2023-04-16T03:23:04.653Z,2.77
2023-04-16T03:26:09.604Z,2.60
2023-04-16T03:29:13.133Z,2.50
2023-04-16T03:32:17.643Z,2.93
2023-04-16T03:35:21.491Z,3.13
2023-04-16T03:38:26.009Z,3.00
2023-04-16T03:41:33.511Z,3.87
2023-04-16T03:44:37.469Z,3.20
2023-04-16T03:47:41.407Z,3.57
2023-04-16T03:50:48.710Z,3.20
2023-04-16T03:53:54.282Z,3.73
2023-04-16T03:56:59.715Z,3.67
2023-04-16T04:00:03.753Z,3.40
2023-04-16T04:03:18.741Z,3.60
2023-04-16T04:06:25.031Z,3.93
2023-04-16T04:09:28.669Z,4.23
2023-04-16T04:12:33.794Z,4.10
2023-04-16T04:15:38.343Z,4.17
2023-04-16T04:18:43.310Z,4.03
2023-04-16T04:21:48.079Z,4.60
2023-04-16T04:24:53.800Z,4.67
2023-04-16T04:27:58.743Z,5.00
2023-04-16T04:31:03.136Z,4.73
2023-04-16T04:34:07.646Z,5.30
2023-04-16T04:37:11.375Z,5.40
2023-04-16T04:40:15.826Z,5.13
2023-04-16T04:43:21.833Z,5.30
2023-04-16T04:46:26.807Z,5.20
2023-04-16T04:49:30.760Z,4.90
2023-04-16T04:52:34.307Z,5.27
2023-04-16T04:55:39.811Z,4.50
2023-04-16T04:58:44.791Z,4.37
2023-04-16T05:01:48.734Z,5.23
2023-04-16T05:04:52.336Z,5.67
2023-04-16T05:07:55.942Z,6.03
2023-04-16T05:10:59.795Z,6.10
2023-04-16T05:14:04.751Z,6.73
2023-04-16T05:17:11.076Z,5.53
2023-04-16T05:20:14.794Z,6.50
2023-04-16T05:23:18.489Z,6.47
2023-04-16T05:26:23.154Z,6.90
2023-04-16T05:29:28.462Z,7.13
2023-04-16T05:32:32.153Z,6.60
2023-04-16T05:35:35.898Z,6.50
2023-04-16T05:38:39.573Z,7.00
2023-04-16T05:41:43.289Z,7.07
2023-04-16T05:44:48.234Z,6.03
2023-04-16T05:47:51.804Z,5.87
2023-04-16T05:50:55.507Z,5.60
2023-04-16T05:53:59.037Z,7.03
2023-04-16T05:57:03.059Z,5.43
2023-04-16T06:00:09.549Z,3.13
2023-04-16T06:03:16.048Z,2.83
2023-04-16T06:06:19.875Z,3.30
2023-04-16T06:09:23.535Z,3.50
2023-04-16T06:12:27.363Z,4.00
2023-04-16T06:15:32.638Z,3.37
2023-04-16T06:18:36.336Z,3.60
2023-04-16T06:21:40.093Z,4.13
2023-04-16T06:24:43.828Z,3.53
2023-04-16T06:27:47.474Z,3.80
2023-04-16T06:30:52.506Z,3.60
2023-04-16T06:33:56.122Z,3.63
2023-04-16T06:36:59.865Z,3.40
2023-04-16T06:40:03.409Z,3.83
2023-04-16T06:43:07.627Z,3.90
2023-04-16T06:46:12.778Z,3.90
2023-04-16T06:49:16.470Z,2.90
2023-04-16T06:52:20.035Z,3.10
2023-04-16T06:55:23.697Z,3.17
2023-04-16T06:58:27.658Z,3.03
2023-04-16T07:01:32.892Z,3.07
2023-04-16T07:04:36.671Z,3.07
2023-04-16T07:07:40.250Z,3.03
2023-04-16T07:10:43.940Z,2.60
2023-04-16T07:13:47.812Z,2.93
2023-04-16T07:16:53.196Z,2.90
2023-04-16T07:19:56.800Z,3.40
2023-04-16T07:23:00.774Z,3.27
2023-04-16T07:26:04.448Z,2.73
2023-04-16T07:29:08.392Z,2.40
2023-04-16T07:32:15.457Z,3.27
2023-04-16T07:35:19.683Z,3.33
2023-04-16T07:38:23.453Z,2.90
2023-04-16T07:41:27.236Z,2.80
2023-04-16T07:44:31.477Z,2.90
2023-04-16T07:47:36.944Z,2.90
2023-04-16T07:50:41.968Z,2.40
2023-04-16T07:53:45.725Z,2.37
2023-04-16T07:56:49.334Z,2.27
2023-04-16T07:59:53.040Z,2.43
2023-04-16T08:02:58.230Z,2.10
2023-04-16T08:06:02.205Z,2.77
2023-04-16T08:09:05.962Z,2.90
2023-04-16T08:12:09.613Z,2.60
2023-04-16T08:15:13.713Z,2.63
2023-04-16T08:18:18.859Z,3.07
2023-04-16T08:21:23.266Z,3.17
2023-04-16T08:24:26.950Z,2.90
2023-04-16T08:27:30.589Z,3.20
2023-04-16T08:30:34.795Z,3.47
2023-04-16T08:33:41.870Z,3.83
2023-04-16T08:36:46.309Z,3.20
2023-04-16T08:39:50.050Z,3.30
2023-04-16T08:42:56.062Z,3.87
2023-04-16T08:46:00.248Z,2.80
2023-04-16T08:49:08.655Z,3.30
2023-04-16T08:52:16.854Z,3.40
2023-04-16T08:55:24.170Z,3.40
2023-04-16T08:58:34.944Z,3.93
2023-04-16T09:01:41.989Z,3.53
2023-04-16T09:04:48.443Z,3.10
2023-04-16T09:07:53.779Z,3.77
2023-04-16T09:10:57.978Z,3.43
2023-04-16T09:14:02.445Z,3.42
2023-04-16T09:17:07.840Z,3.57
2023-04-16T09:20:14.682Z,3.25
2023-04-16T09:23:18.741Z,3.15
2023-04-16T09:26:22.333Z,2.97
2023-04-16T09:29:37.248Z,3.22
2023-04-16T09:32:41.046Z,3.10
2023-04-16T09:35:51.049Z,2.95
2023-04-16T09:38:57.536Z,3.30
2023-04-16T09:42:01.759Z,2.75
2023-04-16T09:45:06.404Z,2.58
2023-04-16T09:48:10.305Z,2.55
2023-04-16T09:51:15.585Z,2.53
2023-04-16T09:54:21.397Z,2.53
2023-04-16T09:57:26.471Z,2.60
2023-04-16T10:00:31.733Z,2.75
2023-04-16T10:03:37.033Z,2.55
2023-04-16T10:06:42.276Z,3.05
2023-04-16T10:09:46.856Z,2.25
2023-04-16T10:12:50.610Z,2.42
2023-04-16T10:15:54.356Z,2.60
2023-04-16T10:18:58.420Z,2.50
2023-04-16T10:22:03.933Z,2.20
2023-04-16T10:25:09.363Z,2.13
2023-04-16T10:28:14.512Z,2.63
2023-04-16T10:31:19.178Z,2.10
2023-04-16T10:34:23.739Z,2.25
2023-04-16T10:37:32.643Z,2.47
2023-04-16T10:40:36.978Z,2.10
2023-04-16T10:43:42.544Z,2.58
2023-04-16T10:46:49.668Z,2.47
2023-04-16T10:49:53.752Z,2.45
2023-04-16T10:53:24.918Z,2.50
2023-04-16T10:56:28.745Z,3.00
2023-04-16T10:59:33.576Z,2.40
2023-04-16T11:02:37.265Z,2.42
2023-04-16T11:05:49.244Z,2.95
2023-04-16T11:08:55.412Z,2.58
2023-04-16T11:11:59.455Z,2.42
2023-04-16T11:15:05.368Z,2.67
2023-04-16T11:18:10.000Z,2.75
2023-04-16T11:21:14.471Z,2.33
2023-04-16T11:24:19.606Z,2.65
2023-04-16T11:27:23.699Z,2.83
2023-04-16T11:30:31.313Z,3.17
2023-04-16T11:33:34.896Z,2.72
2023-04-16T11:36:45.384Z,2.88
2023-04-16T11:39:54.461Z,3.40
2023-04-16T11:43:02.556Z,3.10
2023-04-16T11:46:23.982Z,3.33
2023-04-16T11:49:30.472Z,3.28
2023-04-16T11:52:36.579Z,3.50
2023-04-16T11:55:46.317Z,3.17
2023-04-16T11:59:07.957Z,3.88
2023-04-16T12:02:12.207Z,3.72
2023-04-16T12:05:32.093Z,3.20
2023-04-16T12:08:35.676Z,3.30
2023-04-16T12:11:41.750Z,3.63
2023-04-16T12:14:52.181Z,3.08
2023-04-16T12:18:08.224Z,3.53
2023-04-16T12:21:12.638Z,3.20
2023-04-16T12:24:17.466Z,3.70
2023-04-16T12:27:23.126Z,3.50
2023-04-16T12:30:28.159Z,3.53
2023-04-16T12:33:32.198Z,3.07
2023-04-16T12:36:35.775Z,2.73
2023-04-16T12:39:39.283Z,2.47
2023-04-16T12:42:44.806Z,3.20
2023-04-16T12:45:48.307Z,3.57
2023-04-16T12:48:53.241Z,3.40
2023-04-16T12:51:57.087Z,3.13
2023-04-16T12:55:00.768Z,2.67
2023-04-16T12:58:05.975Z,2.10
2023-04-16T13:01:09.906Z,2.07
2023-04-16T13:04:13.697Z,1.20
2023-04-16T13:07:18.164Z,0.83
2023-04-16T13:10:23.696Z,1.00
2023-04-16T13:13:28.684Z,1.00
2023-04-16T13:16:32.487Z,1.00
2023-04-16T13:19:36.330Z,1.00
2023-04-16T13:22:40.733Z,1.33
2023-04-16T13:25:44.441Z,1.00
2023-04-16T13:28:49.641Z,1.77
2023-04-16T13:31:54.169Z,1.70
2023-04-16T13:34:58.167Z,1.93
2023-04-16T13:38:01.943Z,1.80
2023-04-16T13:41:06.268Z,2.13
2023-04-16T13:44:11.261Z,1.93
2023-04-16T13:47:14.957Z,2.77
2023-04-16T13:50:18.968Z,2.57
2023-04-16T13:53:22.501Z,2.53
2023-04-16T13:56:26.800Z,2.40
2023-04-16T13:59:31.876Z,2.20
2023-04-16T14:02:35.968Z,2.40
2023-04-16T14:05:39.798Z,2.73
2023-04-16T14:08:43.536Z,2.70
2023-04-16T14:11:47.157Z,3.47
2023-04-16T14:14:52.300Z,2.70
2023-04-16T14:17:56.215Z,3.40
2023-04-16T14:21:02.386Z,3.40
2023-04-16T14:24:06.826Z,3.25
2023-04-16T14:27:11.365Z,3.72
2023-04-16T14:30:16.890Z,3.70
2023-04-16T14:33:20.952Z,3.60
2023-04-16T14:36:25.089Z,3.58
2023-04-16T14:39:28.884Z,3.42
2023-04-16T14:42:32.536Z,3.25
2023-04-16T14:45:38.672Z,3.50
2023-04-16T14:48:42.946Z,3.22
2023-04-16T14:51:47.683Z,3.20
2023-04-16T14:54:52.444Z,3.17
2023-04-16T14:57:56.649Z,3.28
2023-04-16T15:01:02.054Z,3.40
2023-04-16T15:04:06.258Z,3.63
2023-04-16T15:07:10.105Z,4.78
2023-04-16T15:10:14.335Z,4.07
2023-04-16T15:13:18.286Z,3.63
2023-04-16T15:16:23.612Z,4.47
2023-04-16T15:19:27.747Z,4.37
2023-04-16T15:22:31.585Z,3.90
2023-04-16T15:25:35.527Z,4.13
2023-04-16T15:28:39.347Z,4.37
2023-04-16T15:31:44.570Z,4.40
2023-04-16T15:34:48.381Z,4.40
2023-04-16T15:37:53.057Z,3.90
2023-04-16T15:40:59.388Z,3.83
2023-04-16T15:44:03.223Z,4.10
2023-04-16T15:47:08.911Z,3.87
2023-04-16T15:50:12.881Z,4.13
2023-04-16T15:53:16.828Z,3.93
2023-04-16T15:56:20.947Z,4.40
2023-04-16T15:59:24.715Z,3.93
2023-04-16T16:02:30.897Z,3.80
2023-04-16T16:05:34.863Z,3.90
2023-04-16T16:08:38.750Z,3.90
2023-04-16T16:11:42.582Z,3.57
2023-04-16T16:14:46.250Z,3.50
2023-04-16T16:17:53.078Z,3.30
2023-04-16T16:20:58.711Z,4.00
2023-04-16T16:24:02.654Z,3.70
2023-04-16T16:27:06.631Z,4.13
2023-04-16T16:30:11.447Z,4.10
2023-04-16T16:33:17.086Z,3.50
2023-04-16T16:36:20.615Z,3.30
2023-04-16T16:39:25.604Z,3.47
2023-04-16T16:42:29.788Z,3.33
2023-04-16T16:45:33.650Z,4.10
2023-04-16T16:48:39.059Z,3.10
2023-04-16T16:51:42.866Z,3.90
2023-04-16T16:54:46.580Z,3.50
2023-04-16T16:57:50.377Z,3.47
2023-04-16T17:00:54.215Z,2.93
2023-04-16T17:03:59.583Z,3.47
2023-04-16T17:07:03.489Z,3.10
2023-04-16T17:10:08.267Z,3.83
2023-04-16T17:13:13.858Z,3.30
2023-04-16T17:16:17.883Z,4.07
2023-04-16T17:19:23.191Z,3.50
2023-04-16T17:22:26.812Z,3.97
2023-04-16T17:25:30.716Z,4.90
2023-04-16T17:28:34.474Z,3.77
2023-04-16T17:31:38.223Z,4.40
2023-04-16T17:34:43.310Z,3.57
2023-04-16T17:37:47.083Z,4.00
2023-04-16T17:40:50.845Z,7.27
2023-04-16T17:43:54.461Z,4.73
2023-04-16T17:46:58.851Z,4.27
2023-04-16T17:50:04.132Z,4.40
2023-04-16T17:53:07.781Z,5.50
2023-04-16T17:56:11.537Z,4.63
2023-04-16T17:59:15.117Z,5.47
2023-04-16T18:02:18.915Z,5.90
2023-04-16T18:05:24.169Z,5.00
2023-04-16T18:08:28.962Z,5.00
2023-04-16T18:11:32.676Z,4.47
2023-04-16T18:14:37.350Z,4.93
2023-04-16T18:17:41.040Z,4.87
2023-04-16T18:20:46.150Z,5.27
2023-04-16T18:23:49.724Z,5.57
2023-04-16T18:26:53.623Z,5.53
2023-04-16T18:29:59.459Z,5.63
2023-04-16T18:33:25.246Z,5.67
2023-04-16T18:36:28.783Z,5.80
2023-04-16T18:39:34.208Z,5.77
2023-04-16T18:42:37.931Z,6.20
2023-04-16T18:45:42.903Z,7.10
2023-04-16T18:48:46.735Z,5.63
2023-04-16T18:51:51.736Z,5.40
2023-04-16T18:54:55.371Z,3.60
2023-04-16T18:57:59.099Z,3.73
2023-04-16T19:01:03.211Z,3.87
2023-04-16T19:04:07.157Z,3.77
2023-04-16T19:07:12.557Z,3.50
2023-04-16T19:10:16.209Z,2.83
2023-04-16T19:13:20.084Z,2.70
2023-04-16T19:16:23.793Z,3.03
2023-04-16T19:19:27.612Z,2.87
2023-04-16T19:22:32.728Z,2.97
2023-04-16T19:25:36.617Z,2.90
2023-04-16T19:28:40.280Z,3.07
2023-04-16T19:31:44.013Z,3.83
2023-04-16T19:34:47.601Z,4.53
2023-04-16T19:37:53.197Z,3.87
2023-04-16T19:40:56.849Z,3.87
2023-04-16T19:44:00.751Z,4.97
2023-04-16T19:47:04.492Z,4.70
2023-04-16T19:50:10.101Z,5.30
2023-04-16T19:53:17.166Z,4.53
2023-04-16T19:56:20.922Z,5.60
2023-04-16T19:59:25.237Z,5.50
2023-04-16T20:02:29.115Z,5.33
2023-04-16T20:05:33.041Z,5.17
2023-04-16T20:08:38.809Z,5.77
2023-04-16T20:11:42.445Z,5.33
2023-04-16T20:14:46.156Z,5.57
2023-04-16T20:17:49.984Z,5.07
2023-04-16T20:20:53.770Z,5.10
2023-04-16T20:23:59.637Z,6.23
2023-04-16T20:27:03.318Z,4.93
2023-04-16T20:30:08.176Z,5.43
2023-04-16T20:33:11.947Z,5.23
2023-04-16T20:36:15.744Z,5.90
2023-04-16T20:39:22.692Z,5.20
2023-04-16T20:42:27.842Z,5.60
2023-04-16T20:45:38.293Z,5.70
2023-04-16T20:48:41.905Z,5.47
2023-04-16T20:51:45.727Z,5.00
2023-04-16T20:54:52.188Z,5.27
2023-04-16T20:57:55.917Z,5.67
2023-04-16T21:00:59.858Z,6.00
2023-04-16T21:04:03.768Z,5.80
2023-04-16T21:07:07.677Z,5.77
2023-04-16T21:10:17.608Z,5.30
2023-04-16T21:13:22.082Z,5.97
2023-04-16T21:16:26.549Z,6.60
2023-04-16T21:19:30.451Z,5.20
2023-04-16T21:22:34.119Z,6.17
2023-04-16T21:25:39.190Z,5.10
2023-04-16T21:28:42.790Z,5.37
2023-04-16T21:31:46.561Z,5.33
2023-04-16T21:34:50.244Z,5.80
2023-04-16T21:37:53.825Z,5.07
2023-04-16T21:40:58.882Z,4.90
2023-04-16T21:44:02.532Z,5.10
2023-04-16T21:47:06.466Z,5.40
2023-04-16T21:50:10.947Z,5.43
2023-04-16T21:53:14.923Z,5.03
2023-04-16T21:56:19.969Z,5.13
2023-04-16T21:59:23.586Z,5.47
2023-04-16T22:02:27.709Z,5.67
2023-04-16T22:05:31.918Z,5.43
2023-04-16T22:08:35.726Z,4.37
2023-04-16T22:11:40.956Z,5.50
2023-04-16T22:14:59.302Z,5.00
2023-04-16T22:18:06.288Z,5.63
2023-04-16T22:21:09.860Z,5.20
2023-04-16T22:24:13.673Z,4.60
2023-04-16T22:27:18.905Z,5.70
2023-04-16T22:30:22.440Z,4.73
2023-04-16T22:33:26.070Z,5.23
2023-04-16T22:36:30.133Z,4.80
2023-04-16T22:39:33.771Z,5.00
2023-04-16T22:42:38.929Z,4.70
2023-04-16T22:45:43.342Z,5.60
2023-04-16T22:48:47.312Z,5.70
2023-04-16T22:51:50.906Z,4.73
2023-04-16T22:54:54.343Z,5.77
2023-04-16T22:57:59.385Z,5.57
2023-04-16T23:01:02.975Z,5.30
2023-04-16T23:04:06.724Z,5.80
2023-04-16T23:07:10.261Z,5.30
2023-04-16T23:10:13.861Z,5.43
2023-04-16T23:13:18.796Z,4.97
2023-04-16T23:16:22.418Z,5.77
2023-04-16T23:19:26.057Z,5.90
2023-04-16T23:22:29.547Z,5.70
2023-04-16T23:25:33.034Z,6.60
2023-04-16T23:28:38.039Z,5.37
2023-04-16T23:31:41.679Z,5.80
2023-04-16T23:34:45.228Z,5.70
2023-04-16T23:37:48.818Z,5.80
2023-04-16T23:40:52.507Z,6.77
2023-04-16T23:43:57.557Z,5.57
2023-04-16T23:47:01.242Z,6.80
2023-04-16T23:50:05.694Z,5.93
2023-04-16T23:53:09.304Z,6.80
2023-04-16T23:56:13.433Z,5.77
2023-04-16T23:59:18.439Z,6.53
